createdAt,value
2023-04-01T00:00:36.586Z,93349.00
2023-04-01T00:01:36.661Z,93349.00
2023-04-01T00:02:36.766Z,93351.00
2023-04-01T00:03:36.751Z,93353.00
2023-04-01T00:04:36.737Z,93353.00
2023-04-01T00:05:36.745Z,93351.00
2023-04-01T00:06:36.802Z,93355.00
2023-04-01T00:07:36.819Z,93353.00
2023-04-01T00:08:36.854Z,93351.00
2023-04-01T00:09:36.907Z,93349.00
2023-04-01T00:10:36.969Z,93353.00
2023-04-01T00:11:37.001Z,93353.00
2023-04-01T00:12:37.033Z,93353.00
2023-04-01T00:13:37.049Z,93355.00
2023-04-01T00:14:37.088Z,93355.00
2023-04-01T00:15:37.099Z,93351.00
2023-04-01T00:16:37.172Z,93351.00
2023-04-01T00:17:37.201Z,93349.00
2023-04-01T00:18:37.250Z,93347.00
2023-04-01T00:19:37.259Z,93349.00
2023-04-01T00:20:37.319Z,93351.00
2023-04-01T00:21:37.348Z,93353.00
2023-04-01T00:22:37.473Z,93349.00
2023-04-01T00:23:37.414Z,93345.00
2023-04-01T00:24:37.436Z,93345.00
2023-04-01T00:25:37.475Z,93349.00
2023-04-01T00:26:37.525Z,93349.00
2023-04-01T00:27:37.575Z,93347.00
2023-04-01T00:28:37.597Z,93343.00
2023-04-01T00:29:37.635Z,93343.00
2023-04-01T00:30:37.637Z,93345.00
2023-04-01T00:31:37.738Z,93347.00
2023-04-01T00:32:37.686Z,93345.00
2023-04-01T00:33:37.774Z,93345.00
2023-04-01T00:34:37.765Z,93341.00
2023-04-01T00:35:37.808Z,93343.00
2023-04-01T00:36:37.907Z,93339.00
2023-04-01T00:37:37.867Z,93339.00
2023-04-01T00:38:37.927Z,93341.00
2023-04-01T00:39:37.983Z,93339.00
2023-04-01T00:40:38.010Z,93341.00
2023-04-01T00:41:38.045Z,93343.00
2023-04-01T00:42:38.107Z,93343.00
2023-04-01T00:43:38.141Z,93343.00
2023-04-01T00:44:38.189Z,93339.00
2023-04-01T00:45:38.208Z,93335.00
2023-04-01T00:46:38.276Z,93335.00
2023-04-01T00:47:38.328Z,93335.00
2023-04-01T00:48:38.325Z,93333.00
2023-04-01T00:49:38.382Z,93335.00
2023-04-01T00:50:38.397Z,93333.00
2023-04-01T00:51:38.429Z,93333.00
2023-04-01T00:52:38.430Z,93333.00
2023-04-01T00:53:38.510Z,93333.00
2023-04-01T00:54:38.497Z,93335.00
2023-04-01T00:55:38.507Z,93335.00
2023-04-01T00:56:38.550Z,93333.00
2023-04-01T00:57:38.571Z,93335.00
2023-04-01T00:58:38.581Z,93333.00
2023-04-01T00:59:38.607Z,93331.00
2023-04-01T01:00:38.670Z,93331.00
2023-04-01T01:01:38.684Z,93335.00
2023-04-01T01:02:38.798Z,93337.00
2023-04-01T01:03:38.754Z,93337.00
2023-04-01T01:04:38.796Z,93339.00
2023-04-01T01:05:48.526Z,93339.00
2023-04-01T01:06:39.817Z,93337.00
2023-04-01T01:07:38.789Z,93335.00
2023-04-01T01:08:38.802Z,93331.00
2023-04-01T01:09:38.790Z,93331.00
2023-04-01T01:10:38.768Z,93329.00
2023-04-01T01:11:43.592Z,93329.00
2023-04-01T01:12:39.759Z,93327.00
2023-04-01T01:13:38.775Z,93327.00
2023-04-01T01:14:38.753Z,93325.00
2023-04-01T01:15:38.727Z,93325.00
2023-04-01T01:16:38.757Z,93323.00
2023-04-01T01:17:38.768Z,93325.00
2023-04-01T01:18:38.699Z,93327.00
2023-04-01T01:19:38.732Z,93323.00
2023-04-01T01:20:38.703Z,93323.00
2023-04-01T01:21:38.678Z,93319.00
2023-04-01T01:22:38.721Z,93317.00
2023-04-01T01:23:38.683Z,93317.00
2023-04-01T01:24:38.669Z,93317.00
2023-04-01T01:25:38.719Z,93321.00
2023-04-01T01:26:38.776Z,93317.00
2023-04-01T01:27:38.769Z,93319.00
2023-04-01T01:28:38.813Z,93319.00
2023-04-01T01:29:38.849Z,93319.00
2023-04-01T01:30:38.906Z,93321.00
2023-04-01T01:31:38.937Z,93317.00
2023-04-01T01:32:39.001Z,93315.00
2023-04-01T01:33:39.002Z,93311.00
2023-04-01T01:34:39.052Z,93311.00
2023-04-01T01:35:39.109Z,93308.00
2023-04-01T01:36:39.122Z,93311.00
2023-04-01T01:37:39.140Z,93309.00
2023-04-01T01:38:39.195Z,93308.00
2023-04-01T01:39:39.245Z,93304.00
2023-04-01T01:40:39.276Z,93304.00
2023-04-01T01:41:39.318Z,93308.00
2023-04-01T01:42:39.350Z,93306.00
2023-04-01T01:43:39.381Z,93306.00
2023-04-01T01:44:39.423Z,93306.00
2023-04-01T01:45:39.463Z,93309.00
2023-04-01T01:46:39.534Z,93315.00
2023-04-01T01:47:39.541Z,93313.00
2023-04-01T01:48:39.567Z,93313.00
2023-04-01T01:49:39.580Z,93311.00
2023-04-01T01:50:39.612Z,93311.00
2023-04-01T01:51:39.630Z,93309.00
2023-04-01T01:52:39.707Z,93308.00
2023-04-01T01:53:39.708Z,93308.00
2023-04-01T01:54:39.802Z,93306.00
2023-04-01T01:55:39.823Z,93306.00
2023-04-01T01:56:39.847Z,93304.00
2023-04-01T01:57:39.905Z,93304.00
2023-04-01T01:58:39.926Z,93302.00
2023-04-01T01:59:40.015Z,93298.00
2023-04-01T02:00:39.998Z,93298.00
2023-04-01T02:01:40.094Z,93302.00
2023-04-01T02:02:40.119Z,93300.00
2023-04-01T02:03:40.118Z,93302.00
2023-04-01T02:04:40.204Z,93304.00
2023-04-01T02:05:40.181Z,93309.00
2023-04-01T02:06:40.225Z,93309.00
2023-04-01T02:07:40.251Z,93309.00
2023-04-01T02:08:40.320Z,93311.00
2023-04-01T02:09:40.338Z,93313.00
2023-04-01T02:10:40.389Z,93315.00
2023-04-01T02:11:40.421Z,93317.00
2023-04-01T02:12:40.458Z,93319.00
2023-04-01T02:13:40.441Z,93317.00
2023-04-01T02:14:40.496Z,93317.00
2023-04-01T02:15:40.542Z,93317.00
2023-04-01T02:16:40.547Z,93319.00
2023-04-01T02:17:40.613Z,93323.00
2023-04-01T02:18:40.632Z,93323.00
2023-04-01T02:19:40.747Z,93325.00
2023-04-01T02:20:40.720Z,93325.00
2023-04-01T02:21:40.723Z,93327.00
2023-04-01T02:22:40.776Z,93327.00
2023-04-01T02:23:40.791Z,93325.00
2023-04-01T02:24:40.839Z,93327.00
2023-04-01T02:25:40.891Z,93325.00
2023-04-01T02:26:40.917Z,93329.00
2023-04-01T02:27:40.939Z,93327.00
2023-04-01T02:28:40.957Z,93327.00
2023-04-01T02:29:41.011Z,93325.00
2023-04-01T02:30:41.083Z,93325.00
2023-04-01T02:31:41.130Z,93327.00
2023-04-01T02:32:41.201Z,93327.00
2023-04-01T02:33:41.154Z,93329.00
2023-04-01T02:34:41.189Z,93333.00
2023-04-01T02:35:41.335Z,93331.00
2023-04-01T02:36:41.274Z,93333.00
2023-04-01T02:37:41.328Z,93335.00
2023-04-01T02:38:41.371Z,93339.00
2023-04-01T02:39:41.403Z,93337.00
2023-04-01T02:40:41.475Z,93335.00
2023-04-01T02:41:41.496Z,93331.00
2023-04-01T02:42:41.543Z,93333.00
2023-04-01T02:43:42.563Z,93333.00
2023-04-01T02:44:41.626Z,93333.00
2023-04-01T02:45:41.657Z,93329.00
2023-04-01T02:46:41.841Z,93331.00
2023-04-01T02:47:41.755Z,93333.00
2023-04-01T02:48:41.717Z,93335.00
2023-04-01T02:49:41.747Z,93339.00
2023-04-01T02:50:41.799Z,93335.00
2023-04-01T02:51:41.844Z,93337.00
2023-04-01T02:52:41.884Z,93335.00
2023-04-01T02:53:41.944Z,93335.00
2023-04-01T02:54:41.957Z,93337.00
2023-04-01T02:55:41.958Z,93343.00
2023-04-01T02:56:42.007Z,93341.00
2023-04-01T02:57:42.046Z,93341.00
2023-04-01T02:58:42.094Z,93343.00
2023-04-01T02:59:42.132Z,93347.00
2023-04-01T03:00:42.205Z,93349.00
2023-04-01T03:01:42.206Z,93353.00
2023-04-01T03:02:42.330Z,93362.00
2023-04-01T03:03:42.299Z,93355.00
2023-04-01T03:04:42.340Z,93353.00
2023-04-01T03:05:42.380Z,93362.00
2023-04-01T03:06:42.397Z,93362.00
2023-04-01T03:07:42.464Z,93364.00
2023-04-01T03:08:42.519Z,93364.00
2023-04-01T03:09:42.551Z,93368.00
2023-04-01T03:10:42.585Z,93364.00
2023-04-01T03:11:42.656Z,93366.00
2023-04-01T03:12:42.660Z,93368.00
2023-04-01T03:13:42.681Z,93368.00
2023-04-01T03:14:42.693Z,93366.00
2023-04-01T03:15:42.726Z,93364.00
2023-04-01T03:16:42.786Z,93364.00
2023-04-01T03:17:42.887Z,93364.00
2023-04-01T03:18:42.858Z,93364.00
2023-04-01T03:19:42.898Z,93362.00
2023-04-01T03:20:42.882Z,93362.00
2023-04-01T03:21:42.915Z,93362.00
2023-04-01T03:22:43.249Z,93355.00
2023-04-01T03:23:42.959Z,93353.00
2023-04-01T03:24:42.983Z,93351.00
2023-04-01T03:25:43.013Z,93351.00
2023-04-01T03:26:43.065Z,93355.00
2023-04-01T03:27:43.060Z,93353.00
2023-04-01T03:28:43.077Z,93353.00
2023-04-01T03:29:43.179Z,93355.00
2023-04-01T03:30:43.170Z,93364.00
2023-04-01T03:31:43.185Z,93364.00
2023-04-01T03:32:43.227Z,93362.00
2023-04-01T03:33:43.230Z,93355.00
2023-04-01T03:34:43.286Z,93355.00
2023-04-01T03:35:43.318Z,93355.00
2023-04-01T03:36:43.382Z,93362.00
2023-04-01T03:37:43.426Z,93355.00
2023-04-01T03:38:43.527Z,93362.00
2023-04-01T03:39:44.531Z,93366.00
2023-04-01T03:40:43.575Z,93368.00
2023-04-01T03:41:43.590Z,93370.00
2023-04-01T03:42:43.702Z,93372.00
2023-04-01T03:43:43.678Z,93376.00
2023-04-01T03:44:43.746Z,93380.00
2023-04-01T03:45:43.774Z,93380.00
2023-04-01T03:46:43.842Z,93380.00
2023-04-01T03:47:43.900Z,93382.00
2023-04-01T03:48:43.922Z,93380.00
2023-04-01T03:49:43.956Z,93382.00
2023-04-01T03:50:43.998Z,93384.00
2023-04-01T03:51:44.044Z,93384.00
2023-04-01T03:52:44.045Z,93390.00
2023-04-01T03:53:44.102Z,93390.00
2023-04-01T03:54:44.144Z,93394.00
2023-04-01T03:55:44.148Z,93396.00
2023-04-01T03:56:44.183Z,93398.00
2023-04-01T03:57:44.233Z,93398.00
2023-04-01T03:58:44.260Z,93398.00
2023-04-01T03:59:44.584Z,93398.00
2023-04-01T04:00:44.374Z,93398.00
2023-04-01T04:01:44.412Z,93400.00
2023-04-01T04:02:44.476Z,93396.00
2023-04-01T04:03:44.556Z,93398.00
2023-04-01T04:04:44.626Z,93396.00
2023-04-01T04:05:44.553Z,93400.00
2023-04-01T04:06:44.590Z,93398.00
2023-04-01T04:07:44.664Z,93396.00
2023-04-01T04:08:44.682Z,93400.00
2023-04-01T04:09:44.735Z,93396.00
2023-04-01T04:10:44.796Z,93398.00
2023-04-01T04:11:44.837Z,93398.00
2023-04-01T04:12:44.902Z,93398.00
2023-04-01T04:13:44.936Z,93403.00
2023-04-01T04:14:44.964Z,93403.00
2023-04-01T04:15:45.020Z,93403.00
2023-04-01T04:16:45.053Z,93403.00
2023-04-01T04:17:45.131Z,93403.00
2023-04-01T04:18:45.185Z,93405.00
2023-04-01T04:19:45.221Z,93405.00
2023-04-01T04:20:45.289Z,93407.00
2023-04-01T04:21:45.288Z,93409.00
2023-04-01T04:22:45.338Z,93413.00
2023-04-01T04:23:45.361Z,93411.00
2023-04-01T04:24:45.389Z,93413.00
2023-04-01T04:25:45.449Z,93413.00
2023-04-01T04:26:45.476Z,93413.00
2023-04-01T04:27:45.500Z,93409.00
2023-04-01T04:28:45.541Z,93407.00
2023-04-01T04:29:45.594Z,93405.00
2023-04-01T04:30:45.637Z,93409.00
2023-04-01T04:31:45.665Z,93411.00
2023-04-01T04:32:45.762Z,93409.00
2023-04-01T04:33:45.722Z,93407.00
2023-04-01T04:34:45.759Z,93403.00
2023-04-01T04:35:45.804Z,93396.00
2023-04-01T04:36:45.792Z,93394.00
2023-04-01T04:37:45.836Z,93394.00
2023-04-01T04:38:45.875Z,93398.00
2023-04-01T04:39:45.892Z,93403.00
2023-04-01T04:40:45.935Z,93405.00
2023-04-01T04:41:45.969Z,93405.00
2023-04-01T04:42:46.032Z,93405.00
2023-04-01T04:43:46.060Z,93409.00
2023-04-01T04:44:46.105Z,93409.00
2023-04-01T04:45:46.123Z,93411.00
2023-04-01T04:46:46.207Z,93409.00
2023-04-01T04:47:46.199Z,93413.00
2023-04-01T04:48:46.188Z,93413.00
2023-04-01T04:49:46.205Z,93417.00
2023-04-01T04:50:46.239Z,93413.00
2023-04-01T04:51:46.344Z,93415.00
2023-04-01T04:52:46.306Z,93415.00
2023-04-01T04:53:46.358Z,93419.00
2023-04-01T04:54:46.373Z,93419.00
2023-04-01T04:55:46.423Z,93419.00
2023-04-01T04:56:46.563Z,93421.00
2023-04-01T04:57:46.504Z,93423.00
2023-04-01T04:58:46.523Z,93423.00
2023-04-01T04:59:46.600Z,93427.00
2023-04-01T05:00:46.644Z,93429.00
2023-04-01T05:01:46.816Z,93433.00
2023-04-01T05:02:46.832Z,93435.00
2023-04-01T05:03:46.747Z,93439.00
2023-04-01T05:04:46.772Z,93447.00
2023-04-01T05:05:46.789Z,93448.00
2023-04-01T05:06:46.843Z,93452.00
2023-04-01T05:07:46.896Z,93452.00
2023-04-01T05:08:46.915Z,93454.00
2023-04-01T05:09:46.954Z,93454.00
2023-04-01T05:10:46.978Z,93450.00
2023-04-01T05:11:47.039Z,93452.00
2023-04-01T05:12:47.078Z,93456.00
2023-04-01T05:13:47.242Z,93456.00
2023-04-01T05:14:47.146Z,93454.00
2023-04-01T05:15:47.197Z,93448.00
2023-04-01T05:16:47.299Z,93450.00
2023-04-01T05:17:47.337Z,93450.00
2023-04-01T05:18:47.308Z,93450.00
2023-04-01T05:19:47.337Z,93450.00
2023-04-01T05:20:47.365Z,93450.00
2023-04-01T05:21:47.438Z,93445.00
2023-04-01T05:22:47.464Z,93443.00
2023-04-01T05:23:47.500Z,93439.00
2023-04-01T05:24:47.531Z,93439.00
2023-04-01T05:25:47.544Z,93441.00
2023-04-01T05:26:47.602Z,93439.00
2023-04-01T05:27:47.640Z,93443.00
2023-04-01T05:28:47.682Z,93443.00
2023-04-01T05:29:47.717Z,93445.00
2023-04-01T05:30:47.801Z,93445.00
2023-04-01T05:31:47.806Z,93443.00
2023-04-01T05:32:47.876Z,93445.00
2023-04-01T05:33:47.867Z,93441.00
2023-04-01T05:34:47.897Z,93441.00
2023-04-01T05:35:47.959Z,93443.00
2023-04-01T05:36:47.961Z,93443.00
2023-04-01T05:37:48.006Z,93447.00
2023-04-01T05:38:48.052Z,93447.00
2023-04-01T05:39:48.068Z,93448.00
2023-04-01T05:40:48.091Z,93450.00
2023-04-01T05:41:48.111Z,93450.00
2023-04-01T05:42:48.150Z,93448.00
2023-04-01T05:43:48.174Z,93450.00
2023-04-01T05:44:48.222Z,93450.00
2023-04-01T05:45:48.274Z,93452.00
2023-04-01T05:46:48.291Z,93456.00
2023-04-01T05:47:48.353Z,93456.00
2023-04-01T05:48:48.366Z,93458.00
2023-04-01T05:49:48.389Z,93454.00
2023-04-01T05:50:48.402Z,93458.00
2023-04-01T05:51:48.460Z,93458.00
2023-04-01T05:52:48.493Z,93458.00
2023-04-01T05:53:48.535Z,93456.00
2023-04-01T05:54:48.570Z,93458.00
2023-04-01T05:55:48.609Z,93458.00
2023-04-01T05:56:48.925Z,93458.00
2023-04-01T05:57:48.670Z,93462.00
2023-04-01T05:58:48.703Z,93462.00
2023-04-01T05:59:48.751Z,93464.00
2023-04-01T06:00:53.715Z,93464.00
2023-04-01T06:01:49.789Z,93468.00
2023-04-01T06:02:48.855Z,93464.00
2023-04-01T06:03:49.055Z,93466.00
2023-04-01T06:04:48.825Z,93468.00
2023-04-01T06:05:48.754Z,93468.00
2023-04-01T06:06:48.751Z,93468.00
2023-04-01T06:07:48.734Z,93470.00
2023-04-01T06:08:48.739Z,93472.00
2023-04-01T06:09:48.733Z,93474.00
2023-04-01T06:10:48.719Z,93476.00
2023-04-01T06:11:48.719Z,93480.00
2023-04-01T06:12:48.704Z,93480.00
2023-04-01T06:13:48.699Z,93480.00
2023-04-01T06:14:48.685Z,93484.00
2023-04-01T06:15:48.728Z,93478.00
2023-04-01T06:16:48.753Z,93476.00
2023-04-01T06:17:48.833Z,93474.00
2023-04-01T06:18:48.812Z,93478.00
2023-04-01T06:19:48.875Z,93478.00
2023-04-01T06:20:48.888Z,93480.00
2023-04-01T06:21:48.984Z,93480.00
2023-04-01T06:22:49.025Z,93482.00
2023-04-01T06:23:49.022Z,93480.00
2023-04-01T06:24:49.006Z,93478.00
2023-04-01T06:25:49.040Z,93478.00
2023-04-01T06:26:49.102Z,93474.00
2023-04-01T06:27:49.137Z,93476.00
2023-04-01T06:28:49.162Z,93472.00
2023-04-01T06:29:49.178Z,93466.00
2023-04-01T06:30:49.180Z,93460.00
2023-04-01T06:31:49.257Z,93452.00
2023-04-01T06:32:49.313Z,93447.00
2023-04-01T06:33:49.281Z,93443.00
2023-04-01T06:34:49.298Z,93445.00
2023-04-01T06:35:49.445Z,93447.00
2023-04-01T06:36:49.402Z,93445.00
2023-04-01T06:37:49.413Z,93445.00
2023-04-01T06:38:49.463Z,93447.00
2023-04-01T06:39:49.484Z,93448.00
2023-04-01T06:40:49.507Z,93450.00
2023-04-01T06:41:49.558Z,93450.00
2023-04-01T06:42:49.572Z,93452.00
2023-04-01T06:43:49.614Z,93448.00
2023-04-01T06:44:49.660Z,93450.00
2023-04-01T06:45:49.643Z,93447.00
2023-04-01T06:46:49.672Z,93447.00
2023-04-01T06:47:49.709Z,93448.00
2023-04-01T06:48:49.717Z,93447.00
2023-04-01T06:49:49.755Z,93452.00
2023-04-01T06:50:49.815Z,93450.00
2023-04-01T06:51:49.862Z,93447.00
2023-04-01T06:52:49.872Z,93448.00
2023-04-01T06:53:49.910Z,93448.00
2023-04-01T06:54:49.901Z,93450.00
2023-04-01T06:55:49.946Z,93452.00
2023-04-01T06:56:49.975Z,93450.00
2023-04-01T06:57:49.981Z,93450.00
2023-04-01T06:58:49.982Z,93450.00
2023-04-01T06:59:50.000Z,93450.00
2023-04-01T07:00:50.090Z,93448.00
2023-04-01T07:01:50.073Z,93445.00
2023-04-01T07:02:50.048Z,93441.00
2023-04-01T07:03:50.055Z,93439.00
2023-04-01T07:04:50.125Z,93441.00
2023-04-01T07:05:50.185Z,93441.00
2023-04-01T07:06:50.186Z,93441.00
2023-04-01T07:07:50.270Z,93441.00
2023-04-01T07:08:50.287Z,93443.00
2023-04-01T07:09:50.311Z,93441.00
2023-04-01T07:10:50.308Z,93443.00
2023-04-01T07:11:50.326Z,93443.00
2023-04-01T07:12:50.390Z,93445.00
2023-04-01T07:13:50.413Z,93448.00
2023-04-01T07:14:50.437Z,93452.00
2023-04-01T07:15:50.449Z,93452.00
2023-04-01T07:16:50.505Z,93452.00
2023-04-01T07:17:50.598Z,93450.00
2023-04-01T07:18:50.602Z,93452.00
2023-04-01T07:19:50.609Z,93448.00
2023-04-01T07:20:50.625Z,93448.00
2023-04-01T07:21:50.640Z,93448.00
2023-04-01T07:22:50.680Z,93450.00
2023-04-01T07:23:50.660Z,93450.00
2023-04-01T07:24:50.722Z,93450.00
2023-04-01T07:25:50.757Z,93454.00
2023-04-01T07:26:50.804Z,93454.00
2023-04-01T07:27:50.861Z,93452.00
2023-04-01T07:28:50.952Z,93456.00
2023-04-01T07:29:50.960Z,93454.00
2023-04-01T07:30:51.018Z,93456.00
2023-04-01T07:31:51.060Z,93458.00
2023-04-01T07:32:51.131Z,93460.00
2023-04-01T07:33:51.212Z,93462.00
2023-04-01T07:34:51.178Z,93464.00
2023-04-01T07:35:51.211Z,93464.00
2023-04-01T07:36:51.202Z,93464.00
2023-04-01T07:37:51.228Z,93464.00
2023-04-01T07:38:51.271Z,93466.00
2023-04-01T07:39:51.282Z,93464.00
2023-04-01T07:40:51.297Z,93468.00
2023-04-01T07:41:51.302Z,93468.00
2023-04-01T07:42:51.364Z,93470.00
2023-04-01T07:43:51.354Z,93466.00
2023-04-01T07:44:51.368Z,93466.00
2023-04-01T07:45:51.424Z,93468.00
2023-04-01T07:46:51.439Z,93470.00
2023-04-01T07:47:51.450Z,93470.00
2023-04-01T07:48:51.422Z,93472.00
2023-04-01T07:49:51.475Z,93474.00
2023-04-01T07:50:53.141Z,93468.00
2023-04-01T07:51:51.529Z,93468.00
2023-04-01T07:52:51.556Z,93468.00
2023-04-01T07:53:51.602Z,93466.00
2023-04-01T07:54:51.645Z,93462.00
2023-04-01T07:55:51.666Z,93466.00
2023-04-01T07:56:51.710Z,93468.00
2023-04-01T07:57:51.707Z,93468.00
2023-04-01T07:58:51.720Z,93468.00
2023-04-01T07:59:51.756Z,93466.00
2023-04-01T08:00:51.765Z,93464.00
2023-04-01T08:01:51.782Z,93460.00
2023-04-01T08:02:51.914Z,93456.00
2023-04-01T08:03:52.100Z,93456.00
2023-04-01T08:04:51.985Z,93458.00
2023-04-01T08:05:51.915Z,93456.00
2023-04-01T08:06:51.928Z,93458.00
2023-04-01T08:07:51.977Z,93460.00
2023-04-01T08:08:52.047Z,93466.00
2023-04-01T08:09:52.061Z,93464.00
2023-04-01T08:10:52.100Z,93464.00
2023-04-01T08:11:52.101Z,93464.00
2023-04-01T08:12:52.140Z,93458.00
2023-04-01T08:13:52.207Z,93456.00
2023-04-01T08:14:52.203Z,93452.00
2023-04-01T08:15:52.252Z,93454.00
2023-04-01T08:16:54.478Z,93452.00
2023-04-01T08:17:52.351Z,93452.00
2023-04-01T08:18:52.303Z,93450.00
2023-04-01T08:19:52.289Z,93448.00
2023-04-01T08:20:52.319Z,93447.00
2023-04-01T08:21:52.355Z,93445.00
2023-04-01T08:22:52.354Z,93445.00
2023-04-01T08:23:52.389Z,93443.00
2023-04-01T08:24:52.429Z,93447.00
2023-04-01T08:25:52.449Z,93447.00
2023-04-01T08:26:52.452Z,93452.00
2023-04-01T08:27:52.509Z,93448.00
2023-04-01T08:28:52.527Z,93448.00
2023-04-01T08:29:52.551Z,93448.00
2023-04-01T08:30:52.555Z,93450.00
2023-04-01T08:31:52.729Z,93448.00
2023-04-01T08:32:52.731Z,93447.00
2023-04-01T08:33:52.680Z,93447.00
2023-04-01T08:34:52.749Z,93447.00
2023-04-01T08:35:52.805Z,93445.00
2023-04-01T08:36:52.826Z,93443.00
2023-04-01T08:37:52.886Z,93447.00
2023-04-01T08:38:52.934Z,93443.00
2023-04-01T08:39:52.931Z,93450.00
2023-04-01T08:40:52.982Z,93448.00
2023-04-01T08:41:53.019Z,93448.00
2023-04-01T08:42:53.018Z,93445.00
2023-04-01T08:43:53.062Z,93445.00
2023-04-01T08:44:53.086Z,93445.00
2023-04-01T08:45:53.135Z,93443.00
2023-04-01T08:46:53.167Z,93439.00
2023-04-01T08:47:53.219Z,93445.00
2023-04-01T08:48:53.237Z,93443.00
2023-04-01T08:49:53.274Z,93445.00
2023-04-01T08:50:53.278Z,93443.00
2023-04-01T08:51:53.352Z,93447.00
2023-04-01T08:52:53.339Z,93441.00
2023-04-01T08:53:53.390Z,93439.00
2023-04-01T08:54:53.430Z,93439.00
2023-04-01T08:55:53.459Z,93439.00
2023-04-01T08:56:53.549Z,93437.00
2023-04-01T08:57:55.432Z,93437.00
2023-04-01T08:58:53.809Z,93437.00
2023-04-01T08:59:53.872Z,93427.00
2023-04-01T09:00:53.858Z,93429.00
2023-04-01T09:01:53.955Z,93423.00
2023-04-01T09:02:54.036Z,93421.00
2023-04-01T09:03:54.046Z,93417.00
2023-04-01T09:04:53.965Z,93415.00
2023-04-01T09:05:53.970Z,93419.00
2023-04-01T09:06:54.005Z,93417.00
2023-04-01T09:07:54.036Z,93417.00
2023-04-01T09:08:54.063Z,93419.00
2023-04-01T09:09:54.272Z,93419.00
2023-04-01T09:10:54.176Z,93419.00
2023-04-01T09:11:54.244Z,93419.00
2023-04-01T09:12:54.273Z,93423.00
2023-04-01T09:13:54.283Z,93423.00
2023-04-01T09:14:54.350Z,93423.00
2023-04-01T09:15:54.410Z,93425.00
2023-04-01T09:16:54.374Z,93421.00
2023-04-01T09:17:54.474Z,93419.00
2023-04-01T09:18:54.440Z,93421.00
2023-04-01T09:19:54.505Z,93415.00
2023-04-01T09:20:54.517Z,93415.00
2023-04-01T09:21:54.544Z,93415.00
2023-04-01T09:22:54.570Z,93413.00
2023-04-01T09:23:54.608Z,93413.00
2023-04-01T09:24:54.626Z,93411.00
2023-04-01T09:25:54.677Z,93409.00
2023-04-01T09:26:54.683Z,93409.00
2023-04-01T09:27:54.717Z,93409.00
2023-04-01T09:28:54.750Z,93413.00
2023-04-01T09:29:54.778Z,93405.00
2023-04-01T09:30:54.797Z,93405.00
2023-04-01T09:31:54.868Z,93401.00
2023-04-01T09:32:54.970Z,93401.00
2023-04-01T09:33:54.898Z,93403.00
2023-04-01T09:34:54.937Z,93398.00
2023-04-01T09:35:54.999Z,93396.00
2023-04-01T09:36:55.008Z,93396.00
2023-04-01T09:37:54.974Z,93398.00
2023-04-01T09:38:54.998Z,93392.00
2023-04-01T09:39:55.070Z,93392.00
2023-04-01T09:40:55.122Z,93392.00
2023-04-01T09:41:55.107Z,93388.00
2023-04-01T09:42:55.161Z,93386.00
2023-04-01T09:43:55.180Z,93380.00
2023-04-01T09:44:55.252Z,93380.00
2023-04-01T09:45:55.307Z,93378.00
2023-04-01T09:46:55.231Z,93378.00
2023-04-01T09:47:55.280Z,93380.00
2023-04-01T09:48:55.290Z,93376.00
2023-04-01T09:49:55.316Z,93370.00
2023-04-01T09:50:55.346Z,93370.00
2023-04-01T09:51:55.381Z,93370.00
2023-04-01T09:52:55.423Z,93370.00
2023-04-01T09:53:55.416Z,93370.00
2023-04-01T09:54:55.469Z,93370.00
2023-04-01T09:55:55.493Z,93366.00
2023-04-01T09:56:55.574Z,93370.00
2023-04-01T09:57:55.572Z,93364.00
2023-04-01T09:58:55.610Z,93366.00
2023-04-01T09:59:55.651Z,93366.00
2023-04-01T10:00:55.649Z,93362.00
2023-04-01T10:01:55.751Z,93368.00
2023-04-01T10:02:55.845Z,93353.00
2023-04-01T10:03:55.750Z,93362.00
2023-04-01T10:04:55.815Z,93353.00
2023-04-01T10:05:55.863Z,93351.00
2023-04-01T10:06:55.846Z,93349.00
2023-04-01T10:07:55.875Z,93345.00
2023-04-01T10:08:55.891Z,93343.00
2023-04-01T10:09:55.933Z,93343.00
2023-04-01T10:10:55.963Z,93343.00
2023-04-01T10:11:55.998Z,93345.00
2023-04-01T10:12:56.009Z,93343.00
2023-04-01T10:13:56.028Z,93343.00
2023-04-01T10:14:56.101Z,93343.00
2023-04-01T10:15:56.126Z,93341.00
2023-04-01T10:16:56.161Z,93341.00
2023-04-01T10:17:56.193Z,93339.00
2023-04-01T10:18:56.182Z,93341.00
2023-04-01T10:19:56.235Z,93335.00
2023-04-01T10:20:56.208Z,93335.00
2023-04-01T10:21:56.219Z,93331.00
2023-04-01T10:22:56.261Z,93331.00
2023-04-01T10:23:56.308Z,93329.00
2023-04-01T10:24:56.383Z,93329.00
2023-04-01T10:25:56.388Z,93327.00
2023-04-01T10:26:56.423Z,93331.00
2023-04-01T10:27:56.478Z,93327.00
2023-04-01T10:28:56.471Z,93329.00
2023-04-01T10:29:56.542Z,93329.00
2023-04-01T10:30:56.529Z,93329.00
2023-04-01T10:31:56.611Z,93329.00
2023-04-01T10:32:56.736Z,93327.00
2023-04-01T10:33:56.683Z,93325.00
2023-04-01T10:34:56.755Z,93327.00
2023-04-01T10:35:56.814Z,93327.00
2023-04-01T10:36:56.837Z,93325.00
2023-04-01T10:37:56.863Z,93323.00
2023-04-01T10:38:56.948Z,93323.00
2023-04-01T10:39:56.996Z,93319.00
2023-04-01T10:40:57.047Z,93319.00
2023-04-01T10:41:57.085Z,93315.00
2023-04-01T10:42:57.178Z,93319.00
2023-04-01T10:43:57.201Z,93315.00
2023-04-01T10:44:57.259Z,93315.00
2023-04-01T10:45:57.376Z,93311.00
2023-04-01T10:46:57.398Z,93309.00
2023-04-01T10:47:57.458Z,93306.00
2023-04-01T10:48:57.471Z,93306.00
2023-04-01T10:49:57.507Z,93302.00
2023-04-01T10:50:57.521Z,93298.00
2023-04-01T10:51:57.522Z,93300.00
2023-04-01T10:52:57.568Z,93298.00
2023-04-01T10:53:57.606Z,93298.00
2023-04-01T10:54:57.716Z,93292.00
2023-04-01T10:55:57.680Z,93296.00
2023-04-01T10:56:57.863Z,93294.00
2023-04-01T10:57:57.804Z,93294.00
2023-04-01T10:58:57.817Z,93292.00
2023-04-01T10:59:57.845Z,93288.00
2023-04-01T11:00:57.922Z,93286.00
2023-04-01T11:02:08.305Z,93288.00
2023-04-01T11:02:58.997Z,93286.00
2023-04-01T11:03:58.024Z,93284.00
2023-04-01T11:04:57.896Z,93282.00
2023-04-01T11:05:57.897Z,93278.00
2023-04-01T11:06:57.897Z,93280.00
2023-04-01T11:08:06.107Z,93278.00
2023-04-01T11:08:58.861Z,93280.00
2023-04-01T11:09:57.856Z,93278.00
2023-04-01T11:10:57.929Z,93278.00
2023-04-01T11:11:57.862Z,93276.00
2023-04-01T11:12:57.843Z,93276.00
2023-04-01T11:13:57.939Z,93274.00
2023-04-01T11:14:57.941Z,93278.00
2023-04-01T11:15:57.834Z,93276.00
2023-04-01T11:16:57.832Z,93276.00
2023-04-01T11:17:57.817Z,93278.00
2023-04-01T11:18:57.847Z,93276.00
2023-04-01T11:19:57.790Z,93278.00
2023-04-01T11:20:57.761Z,93278.00
2023-04-01T11:21:57.787Z,93278.00
2023-04-01T11:22:57.853Z,93278.00
2023-04-01T11:24:57.904Z,93280.00
2023-04-01T11:25:57.932Z,93280.00
2023-04-01T11:26:57.944Z,93280.00
2023-04-01T11:27:57.937Z,93276.00
2023-04-01T11:28:57.854Z,93270.00
2023-04-01T11:30:00.099Z,93272.00
2023-04-01T11:30:57.857Z,93274.00
2023-04-01T11:31:57.856Z,93276.00
2023-04-01T11:32:57.891Z,93272.00
2023-04-01T11:33:57.962Z,93270.00
2023-04-01T11:34:57.828Z,93278.00
2023-04-01T11:35:58.265Z,93276.00
2023-04-01T11:36:57.864Z,93278.00
2023-04-01T11:37:57.865Z,93274.00
2023-04-01T11:38:57.780Z,93270.00
2023-04-01T11:39:58.306Z,93274.00
2023-04-01T11:40:57.763Z,93272.00
2023-04-01T11:41:57.826Z,93270.00
2023-04-01T11:42:57.744Z,93272.00
2023-04-01T11:43:57.754Z,93268.00
2023-04-01T11:44:57.736Z,93270.00
2023-04-01T11:45:57.755Z,93266.00